createdAt,value
2023-01-18T00:00:27.944Z,96345.00
2023-01-18T00:02:56.258Z,96335.00
2023-01-18T00:05:24.069Z,96334.19
2023-01-18T00:07:52.167Z,96342.03
2023-01-18T00:10:19.897Z,96337.84
2023-01-18T00:12:47.506Z,96339.22
2023-01-18T00:15:16.672Z,96336.22
2023-01-18T00:17:51.417Z,96332.03
2023-01-18T00:20:20.831Z,96336.00
2023-01-18T00:22:48.480Z,96316.56
2023-01-18T00:25:16.474Z,96321.75
2023-01-18T00:27:47.050Z,96333.09
2023-01-18T00:30:18.421Z,96328.47
2023-01-18T00:32:46.042Z,96332.44
2023-01-18T00:35:13.973Z,96303.44
2023-01-18T00:37:41.522Z,96346.00
2023-01-18T00:40:10.851Z,96335.94
2023-01-18T00:42:56.562Z,96336.78
2023-01-18T00:45:25.813Z,96331.28
2023-01-18T00:47:53.466Z,96330.28
2023-01-18T00:50:22.434Z,96328.75
2023-01-18T00:52:50.380Z,96342.47
2023-01-18T00:55:18.624Z,96319.59
2023-01-18T00:57:46.272Z,96334.09
2023-01-18T01:00:16.741Z,96338.91
2023-01-18T01:02:46.020Z,96340.13
2023-01-18T01:05:36.275Z,96340.25
2023-01-18T01:08:05.721Z,96343.53
2023-01-18T01:10:33.590Z,96345.38
2023-01-18T01:13:19.113Z,96351.91
2023-01-18T01:16:04.499Z,96347.97
2023-01-18T01:18:51.138Z,96353.28
2023-01-18T01:21:36.405Z,96356.66
2023-01-18T01:24:21.849Z,96356.03
2023-01-18T01:26:49.466Z,96360.44
2023-01-18T01:29:17.282Z,96361.28
2023-01-18T01:31:44.872Z,96367.06
2023-01-18T01:34:14.136Z,96353.19
2023-01-18T01:36:41.761Z,96366.84
2023-01-18T01:39:10.995Z,96368.59
2023-01-18T01:41:39.120Z,96369.91
2023-01-18T01:44:54.429Z,96384.75
2023-01-18T01:47:38.473Z,96387.50
2023-01-18T01:50:14.013Z,96387.88
2023-01-18T01:52:42.980Z,96400.44
2023-01-18T01:55:14.741Z,96398.91
2023-01-18T01:57:45.691Z,96399.00
2023-01-18T02:00:15.549Z,96400.91
2023-01-18T02:02:44.729Z,96404.97
2023-01-18T02:05:14.968Z,96408.31
2023-01-18T02:07:42.701Z,96403.34
2023-01-18T02:10:11.756Z,96406.38
2023-01-18T02:12:41.269Z,96415.75
2023-01-18T02:15:09.942Z,96420.47
2023-01-18T02:17:55.841Z,96422.91
2023-01-18T02:21:09.018Z,96429.00
2023-01-18T02:23:53.020Z,96432.22
2023-01-18T02:26:41.896Z,96425.66
2023-01-18T02:29:16.039Z,96425.72
2023-01-18T02:31:49.609Z,96430.00
2023-01-18T02:34:24.532Z,96429.16
2023-01-18T02:36:58.328Z,96436.06
2023-01-18T02:39:38.288Z,96436.72
2023-01-18T02:42:44.400Z,96440.91
2023-01-18T02:45:35.990Z,96443.84
2023-01-18T02:48:04.439Z,96442.59
2023-01-18T02:50:32.183Z,96446.38
2023-01-18T02:52:59.973Z,96443.63
2023-01-18T02:55:37.907Z,96458.41
2023-01-18T02:58:08.605Z,96467.50
2023-01-18T03:00:38.876Z,96468.69
2023-01-18T03:03:07.248Z,96466.81
2023-01-18T03:05:36.239Z,96464.00
2023-01-18T03:08:09.439Z,96469.53
2023-01-18T03:10:44.890Z,96463.22
2023-01-18T03:13:16.786Z,96470.72
2023-01-18T03:15:49.445Z,96464.63
2023-01-18T03:18:20.439Z,96464.34
2023-01-18T03:20:52.503Z,96474.28
2023-01-18T03:23:39.833Z,96476.75
2023-01-18T03:26:09.773Z,96473.47
2023-01-18T03:28:56.824Z,96475.34
2023-01-18T03:31:48.225Z,96491.44
2023-01-18T03:34:22.508Z,96491.16
2023-01-18T03:36:52.966Z,96472.97
2023-01-18T03:39:25.354Z,96491.53
2023-01-18T03:41:56.329Z,96497.34
2023-01-18T03:44:27.546Z,96495.78
2023-01-18T03:46:57.465Z,96495.16
2023-01-18T03:49:27.338Z,96500.84
2023-01-18T03:52:17.215Z,96499.09
2023-01-18T03:54:53.346Z,96513.44
2023-01-18T03:57:25.844Z,96516.38
2023-01-18T03:59:53.463Z,96518.53
2023-01-18T04:02:22.736Z,96517.84
2023-01-18T04:04:50.327Z,96520.72
2023-01-18T04:07:17.893Z,96528.50
2023-01-18T04:09:45.430Z,96506.50
2023-01-18T04:12:13.024Z,96533.69
2023-01-18T04:14:40.547Z,96535.50
2023-01-18T04:17:08.235Z,96532.06
2023-01-18T04:19:37.160Z,96542.28
2023-01-18T04:22:04.744Z,96549.56
2023-01-18T04:24:32.353Z,96553.06
2023-01-18T04:26:59.900Z,96565.03
2023-01-18T04:29:27.960Z,96557.00
2023-01-18T04:31:55.649Z,96563.22
2023-01-18T04:34:23.923Z,96566.53
2023-01-18T04:36:53.469Z,96563.66
2023-01-18T04:39:21.151Z,96573.66
2023-01-18T04:41:48.773Z,96574.84
2023-01-18T04:44:16.728Z,96572.97
2023-01-18T04:46:44.398Z,96576.53
2023-01-18T04:49:15.214Z,96580.03
2023-01-18T04:51:43.753Z,96576.69
2023-01-18T04:54:14.967Z,96578.69
2023-01-18T04:56:42.590Z,96593.78
2023-01-18T04:59:13.573Z,96577.16
2023-01-18T05:01:41.222Z,96588.66
2023-01-18T05:04:08.892Z,96591.59
2023-01-18T05:06:36.480Z,96599.88
2023-01-18T05:09:04.120Z,96608.81
2023-01-18T05:11:33.156Z,96594.66
2023-01-18T05:14:00.779Z,96611.63
2023-01-18T05:16:28.381Z,96621.47
2023-01-18T05:18:56.001Z,96611.69
2023-01-18T05:21:23.568Z,96626.84
2023-01-18T05:23:51.225Z,96628.59
2023-01-18T05:26:20.868Z,96631.84
2023-01-18T05:28:50.551Z,96637.41
2023-01-18T05:31:21.197Z,96640.50
2023-01-18T05:33:49.137Z,96649.00
2023-01-18T05:36:16.826Z,96648.34
2023-01-18T05:38:44.375Z,96645.91
2023-01-18T05:41:11.949Z,96659.09
2023-01-18T05:43:39.568Z,96663.06
2023-01-18T05:46:08.603Z,96670.38
2023-01-18T05:48:36.301Z,96660.41
2023-01-18T05:51:08.602Z,96672.31
2023-01-18T05:53:36.604Z,96673.22
2023-01-18T05:56:08.157Z,96677.75
2023-01-18T05:58:35.805Z,96675.88
2023-01-18T06:01:03.443Z,96686.69
2023-01-18T06:03:32.369Z,96684.28
2023-01-18T06:05:59.962Z,96685.84
2023-01-18T06:08:27.756Z,96687.22
2023-01-18T06:10:55.641Z,96700.91
2023-01-18T06:13:23.541Z,96699.22
2023-01-18T06:15:54.519Z,96685.41
2023-01-18T06:18:22.177Z,96702.84
2023-01-18T06:20:53.717Z,96706.47
2023-01-18T06:23:21.471Z,96712.31
2023-01-18T06:25:49.020Z,96706.28
2023-01-18T06:28:16.743Z,96717.59
2023-01-18T06:30:47.670Z,96722.91
2023-01-18T06:33:15.317Z,96722.97
2023-01-18T06:35:43.257Z,96728.69
2023-01-18T06:38:13.294Z,96729.88
2023-01-18T06:40:40.991Z,96736.50
2023-01-18T06:43:10.257Z,96734.75
2023-01-18T06:45:37.954Z,96735.84
2023-01-18T06:48:05.698Z,96747.63
2023-01-18T06:50:33.916Z,96747.94
2023-01-18T06:53:01.603Z,96757.94
2023-01-18T06:55:30.605Z,96763.22
2023-01-18T06:57:58.194Z,96775.28
2023-01-18T07:00:25.935Z,96772.31
2023-01-18T07:02:53.943Z,96771.78
2023-01-18T07:05:21.536Z,96773.03
2023-01-18T07:07:49.168Z,96788.22
2023-01-18T07:10:17.273Z,96787.47
2023-01-18T07:12:48.743Z,96791.22
2023-01-18T07:15:21.868Z,96763.28
2023-01-18T07:17:50.674Z,96800.47
2023-01-18T07:20:19.809Z,96782.16
2023-01-18T07:22:51.567Z,96808.59
2023-01-18T07:25:20.589Z,96805.22
2023-01-18T07:27:49.920Z,96819.44
2023-01-18T07:30:18.448Z,96810.06
2023-01-18T07:32:49.630Z,96841.38
2023-01-18T07:35:18.358Z,96842.97
2023-01-18T07:37:49.218Z,96840.59
2023-01-18T07:40:17.125Z,96846.00
2023-01-18T07:42:44.798Z,96863.88
2023-01-18T07:45:14.062Z,96856.84
2023-01-18T07:47:41.768Z,96862.97
2023-01-18T07:50:11.569Z,96873.38
2023-01-18T07:52:39.148Z,96864.84
2023-01-18T07:55:07.588Z,96874.19
2023-01-18T07:57:35.126Z,96877.31
2023-01-18T08:00:02.975Z,96874.56
2023-01-18T08:02:31.879Z,96887.56
2023-01-18T08:04:59.474Z,96886.56
2023-01-18T08:07:27.088Z,96896.16
2023-01-18T08:09:54.658Z,96910.97
2023-01-18T08:12:22.777Z,96902.03
2023-01-18T08:14:50.320Z,96915.75
2023-01-18T08:17:17.897Z,96915.47
2023-01-18T08:19:46.758Z,96912.44
2023-01-18T08:22:14.415Z,96924.31
2023-01-18T08:24:42.077Z,96922.22
2023-01-18T08:27:09.687Z,96923.41
2023-01-18T08:29:37.610Z,96923.41
2023-01-18T08:32:05.347Z,96934.16
2023-01-18T08:34:32.948Z,96942.59
2023-01-18T08:37:01.874Z,96942.66
2023-01-18T08:39:29.421Z,96950.59
2023-01-18T08:41:57.982Z,96950.47
2023-01-18T08:44:25.721Z,96949.34
2023-01-18T08:46:53.282Z,96948.72
2023-01-18T08:49:20.821Z,96958.75
2023-01-18T08:51:48.395Z,96968.22
2023-01-18T08:54:17.425Z,96975.75
2023-01-18T08:56:45.007Z,96976.59
2023-01-18T08:59:12.651Z,96984.69
2023-01-18T09:01:40.244Z,96990.00
2023-01-18T09:04:07.862Z,96990.66
2023-01-18T09:06:35.495Z,96994.88
2023-01-18T09:09:03.243Z,96994.44
2023-01-18T09:11:32.246Z,97004.50
2023-01-18T09:14:02.164Z,96996.16
2023-01-18T09:16:30.599Z,97007.69
2023-01-18T09:18:58.591Z,97011.75
2023-01-18T09:21:27.866Z,97025.50
2023-01-18T09:23:55.497Z,97027.50
2023-01-18T09:26:23.063Z,97019.78
2023-01-18T09:28:53.693Z,97030.75
2023-01-18T09:31:22.762Z,97033.09
2023-01-18T09:33:54.016Z,97039.63
2023-01-18T09:36:26.253Z,97043.59
2023-01-18T09:38:53.933Z,97049.78
2023-01-18T09:41:29.345Z,97053.78
2023-01-18T09:44:01.622Z,97060.47
2023-01-18T09:46:29.416Z,97063.41
2023-01-18T09:48:58.407Z,97063.72
2023-01-18T09:51:31.067Z,97068.03
2023-01-18T09:54:21.490Z,97076.94
2023-01-18T09:56:53.742Z,97074.03
2023-01-18T09:59:29.250Z,97077.41
2023-01-18T10:01:57.063Z,97084.72
2023-01-18T10:04:26.572Z,97080.44
2023-01-18T10:06:57.294Z,97089.59
2023-01-18T10:09:26.653Z,97076.59
2023-01-18T10:11:59.596Z,97089.47
2023-01-18T10:14:45.622Z,97080.44
2023-01-18T10:17:17.677Z,97106.69
2023-01-18T10:19:45.834Z,97101.28
2023-01-18T10:22:20.564Z,97104.03
2023-01-18T10:24:57.465Z,97103.69
2023-01-18T10:27:36.698Z,97108.38
2023-01-18T10:30:16.534Z,97108.56
2023-01-18T10:32:48.792Z,97103.88
2023-01-18T10:35:29.623Z,97114.34
2023-01-18T10:38:00.686Z,97123.97
2023-01-18T10:40:28.526Z,97121.28
2023-01-18T10:43:01.688Z,97108.06
2023-01-18T10:45:32.971Z,97131.66
2023-01-18T10:48:20.189Z,97138.38
2023-01-18T10:50:52.315Z,97128.50
2023-01-18T10:53:24.985Z,97141.94
2023-01-18T10:55:55.718Z,97142.72
2023-01-18T10:58:28.291Z,97147.41
2023-01-18T11:00:57.854Z,97146.25
2023-01-18T11:03:27.712Z,97146.75
2023-01-18T11:06:04.057Z,97146.44
2023-01-18T11:08:33.415Z,97151.91
2023-01-18T11:11:03.023Z,97149.88
2023-01-18T11:13:38.157Z,97152.34
2023-01-18T11:16:12.662Z,97155.66
2023-01-18T11:18:56.419Z,97144.00
2023-01-18T11:21:24.553Z,97167.38
2023-01-18T11:23:52.524Z,97160.38
2023-01-18T11:26:21.258Z,97158.13
2023-01-18T11:28:52.859Z,97150.75
2023-01-18T11:31:23.065Z,97156.09
2023-01-18T11:33:52.532Z,97160.47
2023-01-18T11:36:21.204Z,97161.78
2023-01-18T11:38:49.102Z,97159.41
2023-01-18T11:41:19.988Z,97168.66
2023-01-18T11:44:00.937Z,97171.78
2023-01-18T11:46:40.000Z,97159.41
2023-01-18T11:49:33.528Z,97169.75
2023-01-18T11:52:02.897Z,97177.75
2023-01-18T11:54:36.028Z,97164.03
2023-01-18T11:57:04.578Z,97172.19
2023-01-18T11:59:33.243Z,97168.97
2023-01-18T12:02:28.040Z,97165.44
2023-01-18T12:05:10.269Z,97163.91
2023-01-18T12:07:45.947Z,97172.19
2023-01-18T12:10:17.878Z,97169.66
2023-01-18T12:12:59.822Z,97156.66
2023-01-18T12:15:42.843Z,97179.09
2023-01-18T12:18:24.007Z,97178.72
2023-01-18T12:20:59.348Z,97181.41
2023-01-18T12:23:50.226Z,97183.16
2023-01-18T12:26:26.814Z,97182.88
2023-01-18T12:29:20.310Z,97185.16
2023-01-18T12:31:58.335Z,97192.03
2023-01-18T12:34:32.202Z,97187.97
2023-01-18T12:37:20.677Z,97196.19
2023-01-18T12:39:55.608Z,97199.38
2023-01-18T12:42:31.671Z,97213.66
2023-01-18T12:45:12.424Z,97210.22
2023-01-18T12:47:42.384Z,97178.97
2023-01-18T12:50:22.918Z,97205.16
2023-01-18T12:52:53.543Z,97204.00
2023-01-18T12:55:23.943Z,97217.13
2023-01-18T12:57:59.164Z,97213.94
2023-01-18T13:00:32.649Z,97221.94
2023-01-18T13:03:00.531Z,97225.06
2023-01-18T13:05:35.293Z,97227.00
2023-01-18T13:08:09.166Z,97228.13
2023-01-18T13:10:37.867Z,97229.81
2023-01-18T13:13:07.085Z,97241.13
2023-01-18T13:15:41.466Z,97237.63
2023-01-18T13:18:14.020Z,97231.84
2023-01-18T13:21:01.517Z,97243.84
2023-01-18T13:23:34.535Z,97245.09
2023-01-18T13:26:09.149Z,97249.44
2023-01-18T13:28:38.178Z,97254.72
2023-01-18T13:31:06.495Z,97259.47
2023-01-18T13:33:37.086Z,97256.41
2023-01-18T13:36:11.822Z,97262.66
2023-01-18T13:38:42.125Z,97267.78
2023-01-18T13:41:12.234Z,97270.19
2023-01-18T13:44:02.971Z,97266.69
2023-01-18T13:46:33.907Z,97270.72
2023-01-18T13:49:02.650Z,97261.53
2023-01-18T13:51:54.001Z,97291.19
2023-01-18T13:55:01.025Z,97279.03
2023-01-18T13:57:28.787Z,97295.88
2023-01-18T13:59:56.481Z,97306.22
2023-01-18T14:05:07.240Z,97307.38
2023-01-18T14:07:42.691Z,97307.06
2023-01-18T14:10:25.136Z,97313.81
2023-01-18T14:12:54.112Z,97316.09
2023-01-18T14:15:29.030Z,97317.94
2023-01-18T14:17:59.099Z,97321.50
2023-01-18T14:20:48.446Z,97327.09
2023-01-18T14:23:33.935Z,97333.22
2023-01-18T14:26:03.060Z,97343.28
2023-01-18T14:28:36.491Z,97344.72
2023-01-18T14:31:05.236Z,97345.56
2023-01-18T14:33:34.919Z,97344.78
2023-01-18T14:36:03.066Z,97349.34
2023-01-18T14:38:32.283Z,97347.97
2023-01-18T14:41:05.088Z,97353.75
2023-01-18T14:43:34.965Z,97371.00
2023-01-18T14:46:04.308Z,97363.50
2023-01-18T14:48:34.510Z,97373.66
2023-01-18T14:51:03.975Z,97371.38
2023-01-18T14:53:35.341Z,97381.34
2023-01-18T14:56:06.003Z,97377.03
2023-01-18T14:58:37.262Z,97375.13
2023-01-18T15:01:05.924Z,97385.28
2023-01-18T15:03:33.570Z,97382.81
2023-01-18T15:06:05.546Z,97391.03
2023-01-18T15:08:35.213Z,97396.41
2023-01-18T15:11:05.589Z,97399.31
2023-01-18T15:13:33.801Z,97409.28
2023-01-18T15:16:02.226Z,97396.16
2023-01-18T15:18:30.534Z,97409.66
2023-01-18T15:20:59.650Z,97414.78
2023-01-18T15:23:27.999Z,97410.00
2023-01-18T15:25:57.439Z,97412.66
2023-01-18T15:28:30.921Z,97428.22
2023-01-18T15:30:58.621Z,97425.16
2023-01-18T15:33:27.247Z,97437.59
2023-01-18T15:35:57.353Z,97443.94
2023-01-18T15:38:25.092Z,97435.25
2023-01-18T15:40:59.142Z,97434.31
2023-01-18T15:43:32.076Z,97448.38
2023-01-18T15:46:00.064Z,97457.03
2023-01-18T15:48:28.895Z,97451.47
2023-01-18T15:50:58.711Z,97468.97
2023-01-18T15:53:30.737Z,97449.63
2023-01-18T15:56:03.229Z,97461.13
2023-01-18T15:58:33.060Z,97463.97
2023-01-18T16:01:02.047Z,97461.63
2023-01-18T16:03:33.811Z,97464.94
2023-01-18T16:06:08.788Z,97458.44
2023-01-18T16:08:36.527Z,97473.13
2023-01-18T16:11:05.778Z,97485.50
2023-01-18T16:13:36.020Z,97485.63
2023-01-18T16:16:23.379Z,97487.69
2023-01-18T16:18:59.574Z,97487.13
2023-01-18T16:21:40.410Z,97490.56
2023-01-18T16:24:16.011Z,97493.22
2023-01-18T16:26:45.555Z,97501.59
2023-01-18T16:29:13.390Z,97495.16
2023-01-18T16:31:42.893Z,97502.22
2023-01-18T16:34:22.890Z,97512.72
2023-01-18T16:36:51.415Z,97511.59
2023-01-18T16:39:19.246Z,97512.03
2023-01-18T16:41:53.474Z,97529.19
2023-01-18T16:44:21.595Z,97530.25
2023-01-18T16:46:49.861Z,97533.47
2023-01-18T16:49:18.797Z,97511.22
2023-01-18T16:51:47.472Z,97536.59
2023-01-18T16:54:15.244Z,97542.91
2023-01-18T16:56:45.927Z,97542.19
2023-01-18T16:59:17.831Z,97544.72
2023-01-18T17:01:45.720Z,97554.56
2023-01-18T17:04:13.398Z,97555.81
2023-01-18T17:06:41.532Z,97561.59
2023-01-18T17:09:20.198Z,97555.56
2023-01-18T17:11:48.042Z,97561.66
2023-01-18T17:14:17.228Z,97560.78
2023-01-18T17:16:45.788Z,97522.75
2023-01-18T17:19:14.401Z,97542.53
2023-01-18T17:21:42.449Z,97585.16
2023-01-18T17:24:10.613Z,97586.91
2023-01-18T17:26:39.374Z,97598.16
2023-01-18T17:29:08.191Z,97568.41
2023-01-18T17:31:51.361Z,97593.13
2023-01-18T17:34:26.636Z,97594.00
2023-01-18T17:36:56.169Z,97610.44
2023-01-18T17:39:31.807Z,97608.59
2023-01-18T17:42:12.244Z,97619.91
2023-01-18T17:44:42.035Z,97619.25
2023-01-18T17:47:10.978Z,97587.88
2023-01-18T17:49:38.575Z,97627.13
2023-01-18T17:52:06.258Z,97638.47
2023-01-18T17:54:34.952Z,97634.50
2023-01-18T17:57:02.963Z,97636.22
2023-01-18T17:59:30.488Z,97634.66
2023-01-18T18:01:58.296Z,97627.16
2023-01-18T18:04:27.508Z,97639.16
2023-01-18T18:06:58.278Z,97646.06
2023-01-18T18:09:26.085Z,97646.22
2023-01-18T18:11:53.707Z,97654.00
2023-01-18T18:14:21.290Z,97642.25
2023-01-18T18:16:48.935Z,97660.13
2023-01-18T18:19:16.757Z,97660.28
2023-01-18T18:21:46.119Z,97641.75
2023-01-18T18:24:13.700Z,97674.25
2023-01-18T18:26:41.333Z,97671.78
2023-01-18T18:29:09.777Z,97676.94
2023-01-18T18:31:38.793Z,97672.53
2023-01-18T18:34:06.471Z,97671.75
2023-01-18T18:36:34.039Z,97671.59
2023-01-18T18:39:03.456Z,97677.78
2023-01-18T18:41:31.069Z,97679.56
2023-01-18T18:43:58.710Z,97632.66
2023-01-18T18:46:26.461Z,97675.19
2023-01-18T18:48:54.972Z,97665.75
2023-01-18T18:51:22.705Z,97692.19
2023-01-18T18:53:50.745Z,97699.91
2023-01-18T18:56:19.796Z,97697.41
2023-01-18T18:58:48.906Z,97698.38
2023-01-18T19:01:21.928Z,97696.78
2023-01-18T19:03:50.634Z,97698.56
2023-01-18T19:06:18.398Z,97696.03
2023-01-18T19:08:46.287Z,97703.81
2023-01-18T19:11:15.543Z,97710.84
2023-01-18T19:13:44.622Z,97715.28
2023-01-18T19:16:12.680Z,97702.63
2023-01-18T19:18:40.307Z,97712.91
2023-01-18T19:21:08.084Z,97714.69
2023-01-18T19:23:35.625Z,97719.81
2023-01-18T19:26:03.884Z,97717.44
2023-01-18T19:28:31.995Z,97721.97
2023-01-18T19:31:05.041Z,97726.31
2023-01-18T19:33:32.661Z,97730.75
2023-01-18T19:36:07.605Z,97727.00
2023-01-18T19:38:38.774Z,97741.94
2023-01-18T19:41:11.388Z,97730.91
2023-01-18T19:43:39.536Z,97746.47
2023-01-18T19:46:09.696Z,97745.53
2023-01-18T19:48:38.026Z,97746.66
2023-01-18T19:51:16.420Z,97747.50
2023-01-18T19:53:48.665Z,97752.72
2023-01-18T19:56:16.252Z,97751.81
2023-01-18T19:58:43.827Z,97758.78
2023-01-18T20:01:23.099Z,97758.72
2023-01-18T20:03:58.055Z,97760.44
2023-01-18T20:06:25.607Z,97759.25
2023-01-18T20:08:54.005Z,97758.63
2023-01-18T20:11:21.666Z,97767.06
2023-01-18T20:13:50.422Z,97763.59
2023-01-18T20:16:20.265Z,97767.25
2023-01-18T20:18:48.601Z,97774.09
2023-01-18T20:21:19.059Z,97769.81
2023-01-18T20:23:46.878Z,97778.44
2023-01-18T20:26:20.056Z,97782.81
2023-01-18T20:28:53.659Z,97761.56
2023-01-18T20:31:23.032Z,97795.59
2023-01-18T20:33:50.677Z,97792.19
2023-01-18T20:36:18.950Z,97797.31
2023-01-18T20:38:46.525Z,97788.72
2023-01-18T20:41:14.237Z,97794.81
2023-01-18T20:43:41.803Z,97790.38
2023-01-18T20:46:11.235Z,97801.69
2023-01-18T20:48:40.493Z,97798.97
2023-01-18T20:51:08.442Z,97793.06
2023-01-18T20:53:38.828Z,97804.19
2023-01-18T20:56:11.929Z,97801.38
2023-01-18T20:58:51.244Z,97792.34
2023-01-18T21:01:19.453Z,97819.50
2023-01-18T21:03:53.239Z,97813.59
2023-01-18T21:06:20.875Z,97824.84
2023-01-18T21:08:48.505Z,97820.47
2023-01-18T21:11:17.518Z,97834.25
2023-01-18T21:13:45.109Z,97831.06
2023-01-18T21:16:12.910Z,97831.97
2023-01-18T21:18:40.570Z,97830.19
2023-01-18T21:21:10.530Z,97830.41
2023-01-18T21:23:39.346Z,97836.25
2023-01-18T21:26:08.606Z,97829.31
2023-01-18T21:28:36.234Z,97824.47
2023-01-18T21:31:04.383Z,97834.78
2023-01-18T21:33:32.504Z,97836.09
2023-01-18T21:36:04.059Z,97848.50
2023-01-18T21:38:33.454Z,97820.28
2023-01-18T21:41:21.189Z,97838.81
2023-01-18T21:44:11.471Z,97851.91
2023-01-18T21:46:40.185Z,97857.03
2023-01-18T21:49:08.012Z,97850.97
2023-01-18T21:51:53.485Z,97852.03
2023-01-18T21:54:22.744Z,97848.47
2023-01-18T21:56:52.663Z,97853.84
2023-01-18T21:59:20.271Z,97851.06
2023-01-18T22:01:47.909Z,97851.97
2023-01-18T22:04:34.488Z,97853.72
2023-01-18T22:07:04.171Z,97860.66
2023-01-18T22:09:33.647Z,97826.00
2023-01-18T22:12:01.377Z,97865.72
2023-01-18T22:14:29.026Z,97863.38
2023-01-18T22:16:56.676Z,97843.06
2023-01-18T22:19:24.353Z,97862.59
2023-01-18T22:21:52.008Z,97871.25
2023-01-18T22:24:19.582Z,97867.78
2023-01-18T22:26:48.597Z,97880.75
2023-01-18T22:29:16.196Z,97876.38
2023-01-18T22:31:43.921Z,97880.91
2023-01-18T22:34:17.899Z,97882.69
2023-01-18T22:36:45.515Z,97875.50
2023-01-18T22:39:13.197Z,97885.88
2023-01-18T22:41:40.918Z,97884.81
2023-01-18T22:44:09.828Z,97878.72
2023-01-18T22:46:37.428Z,97886.53
2023-01-18T22:49:05.063Z,97886.34
2023-01-18T22:51:32.921Z,97888.97
2023-01-18T22:54:00.514Z,97876.22
2023-01-18T22:56:28.440Z,97896.00
2023-01-18T22:58:56.327Z,97909.75
2023-01-18T23:01:28.249Z,97910.44
2023-01-18T23:03:58.070Z,97905.41
2023-01-18T23:06:26.508Z,97902.94
2023-01-18T23:08:54.647Z,97904.53
2023-01-18T23:11:24.098Z,97912.47
2023-01-18T23:14:11.384Z,97915.69
2023-01-18T23:17:05.318Z,97888.59
2023-01-18T23:19:34.546Z,97898.78
2023-01-18T23:22:06.904Z,97917.63
2023-01-18T23:24:35.885Z,97922.06
2023-01-18T23:27:03.651Z,97917.50
2023-01-18T23:29:32.381Z,97921.13
2023-01-18T23:32:02.041Z,97914.44
2023-01-18T23:34:29.948Z,97918.91
2023-01-18T23:36:57.787Z,97920.44
2023-01-18T23:39:43.029Z,97910.78
2023-01-18T23:42:33.240Z,97923.56
2023-01-18T23:45:18.297Z,97928.88
2023-01-18T23:48:04.651Z,97934.16
2023-01-18T23:50:50.015Z,97935.09
2023-01-18T23:53:35.423Z,97925.72
2023-01-18T23:56:03.020Z,97938.50
2023-01-18T23:58:30.677Z,97936.88
